sensor_id;sensor_type;location;lat;lon;timestamp;P1;durP1;ratioP1;P2;durP2;ratioP2
48859;SDS011;34679;51.436;-2.518;2024-01-06T00:01:26;4.90;;;1.33;;
48859;SDS011;34679;51.436;-2.518;2024-01-06T00:03:52;8.00;;;1.42;;
48859;SDS011;34679;51.436;-2.518;2024-01-06T00:06:18;10.05;;;1.50;;
48859;SDS011;34679;51.436;-2.518;2024-01-06T00:08:43;7.00;;;1.50;;
48859;SDS011;34679;51.436;-2.518;2024-01-06T00:11:09;5.25;;;1.40;;
48859;SDS011;34679;51.436;-2.518;2024-01-06T00:13:35;6.05;;;1.60;;
48859;SDS011;34679;51.436;-2.518;2024-01-06T00:16:01;8.65;;;1.27;;
48859;SDS011;34679;51.436;-2.518;2024-01-06T00:18:27;9.32;;;1.63;;
48859;SDS011;34679;51.436;-2.518;2024-01-06T00:20:52;4.55;;;1.50;;
48859;SDS011;34679;51.436;-2.518;2024-01-06T00:23:18;13.40;;;1.48;;
48859;SDS011;34679;51.436;-2.518;2024-01-06T00:25:44;6.43;;;1.52;;
48859;SDS011;34679;51.436;-2.518;2024-01-06T00:28:09;6.35;;;1.42;;
48859;SDS011;34679;51.436;-2.518;2024-01-06T00:30:35;8.35;;;1.85;;
48859;SDS011;34679;51.436;-2.518;2024-01-06T00:33:01;8.32;;;1.40;;
48859;SDS011;34679;51.436;-2.518;2024-01-06T00:35:26;4.50;;;1.23;;
48859;SDS011;34679;51.436;-2.518;2024-01-06T00:37:52;7.10;;;2.00;;
48859;SDS011;34679;51.436;-2.518;2024-01-06T00:40:17;6.15;;;1.65;;
48859;SDS011;34679;51.436;-2.518;2024-01-06T00:42:44;4.53;;;1.52;;
48859;SDS011;34679;51.436;-2.518;2024-01-06T00:45:10;4.32;;;1.05;;
48859;SDS011;34679;51.436;-2.518;2024-01-06T00:47:36;6.28;;;1.70;;
48859;SDS011;34679;51.436;-2.518;2024-01-06T00:50:01;6.35;;;1.60;;
48859;SDS011;34679;51.436;-2.518;2024-01-06T00:52:27;5.80;;;1.50;;
48859;SDS011;34679;51.436;-2.518;2024-01-06T00:54:53;7.43;;;1.45;;
48859;SDS011;34679;51.436;-2.518;2024-01-06T00:57:19;2.70;;;1.50;;
48859;SDS011;34679;51.436;-2.518;2024-01-06T00:59:49;6.60;;;1.23;;
48859;SDS011;34679;51.436;-2.518;2024-01-06T01:02:15;7.85;;;1.88;;
48859;SDS011;34679;51.436;-2.518;2024-01-06T01:04:40;8.75;;;1.50;;
48859;SDS011;34679;51.436;-2.518;2024-01-06T01:07:06;7.25;;;1.70;;
48859;SDS011;34679;51.436;-2.518;2024-01-06T01:09:32;5.32;;;1.52;;
48859;SDS011;34679;51.436;-2.518;2024-01-06T01:11:57;5.10;;;1.38;;
48859;SDS011;34679;51.436;-2.518;2024-01-06T01:14:23;5.07;;;1.42;;
48859;SDS011;34679;51.436;-2.518;2024-01-06T01:16:49;4.38;;;1.23;;
48859;SDS011;34679;51.436;-2.518;2024-01-06T01:19:14;5.28;;;1.45;;
48859;SDS011;34679;51.436;-2.518;2024-01-06T01:21:40;3.20;;;1.17;;
48859;SDS011;34679;51.436;-2.518;2024-01-06T01:24:06;9.20;;;1.42;;
48859;SDS011;34679;51.436;-2.518;2024-01-06T01:26:32;5.47;;;2.05;;
48859;SDS011;34679;51.436;-2.518;2024-01-06T01:28:57;5.43;;;1.33;;
48859;SDS011;34679;51.436;-2.518;2024-01-06T01:31:23;7.40;;;1.38;;
48859;SDS011;34679;51.436;-2.518;2024-01-06T01:33:49;6.43;;;1.27;;
48859;SDS011;34679;51.436;-2.518;2024-01-06T01:36:15;9.90;;;2.15;;
48859;SDS011;34679;51.436;-2.518;2024-01-06T01:38:40;5.20;;;1.30;;
48859;SDS011;34679;51.436;-2.518;2024-01-06T01:41:06;6.05;;;1.30;;
48859;SDS011;34679;51.436;-2.518;2024-01-06T01:43:32;5.78;;;1.02;;
48859;SDS011;34679;51.436;-2.518;2024-01-06T01:45:57;4.57;;;1.42;;
48859;SDS011;34679;51.436;-2.518;2024-01-06T01:48:23;7.70;;;1.75;;
48859;SDS011;34679;51.436;-2.518;2024-01-06T01:50:50;7.82;;;1.60;;
48859;SDS011;34679;51.436;-2.518;2024-01-06T01:53:18;7.70;;;1.48;;
48859;SDS011;34679;51.436;-2.518;2024-01-06T01:55:44;6.80;;;1.75;;
48859;SDS011;34679;51.436;-2.518;2024-01-06T01:58:11;9.43;;;1.58;;
48859;SDS011;34679;51.436;-2.518;2024-01-06T02:00:38;8.25;;;1.88;;
48859;SDS011;34679;51.436;-2.518;2024-01-06T02:03:04;3.88;;;1.40;;
48859;SDS011;34679;51.436;-2.518;2024-01-06T02:05:30;5.80;;;1.63;;
48859;SDS011;34679;51.436;-2.518;2024-01-06T02:07:56;7.18;;;2.22;;
48859;SDS011;34679;51.436;-2.518;2024-01-06T02:10:22;9.95;;;1.58;;
48859;SDS011;34679;51.436;-2.518;2024-01-06T02:12:48;7.03;;;1.73;;
48859;SDS011;34679;51.436;-2.518;2024-01-06T02:15:16;3.67;;;1.60;;
48859;SDS011;34679;51.436;-2.518;2024-01-06T02:17:43;4.40;;;1.50;;
48859;SDS011;34679;51.436;-2.518;2024-01-06T02:20:09;3.78;;;1.70;;
48859;SDS011;34679;51.436;-2.518;2024-01-06T02:22:36;2.45;;;1.52;;
48859;SDS011;34679;51.436;-2.518;2024-01-06T02:25:03;8.68;;;1.60;;
48859;SDS011;34679;51.436;-2.518;2024-01-06T02:27:37;4.97;;;1.40;;
48859;SDS011;34679;51.436;-2.518;2024-01-06T02:30:06;4.40;;;1.48;;
48859;SDS011;34679;51.436;-2.518;2024-01-06T02:32:32;7.28;;;1.27;;
48859;SDS011;34679;51.436;-2.518;2024-01-06T02:34:58;6.45;;;1.35;;
48859;SDS011;34679;51.436;-2.518;2024-01-06T02:37:24;5.28;;;1.25;;
48859;SDS011;34679;51.436;-2.518;2024-01-06T02:39:49;8.45;;;2.67;;
48859;SDS011;34679;51.436;-2.518;2024-01-06T02:42:15;4.20;;;1.20;;
48859;SDS011;34679;51.436;-2.518;2024-01-06T02:44:41;5.88;;;1.00;;
48859;SDS011;34679;51.436;-2.518;2024-01-06T02:47:07;6.47;;;1.45;;
48859;SDS011;34679;51.436;-2.518;2024-01-06T02:49:33;7.45;;;3.22;;
48859;SDS011;34679;51.436;-2.518;2024-01-06T02:51:58;7.78;;;1.10;;
48859;SDS011;34679;51.436;-2.518;2024-01-06T02:54:24;5.43;;;1.10;;
48859;SDS011;34679;51.436;-2.518;2024-01-06T02:56:50;4.70;;;1.27;;
48859;SDS011;34679;51.436;-2.518;2024-01-06T02:59:15;6.40;;;1.42;;
48859;SDS011;34679;51.436;-2.518;2024-01-06T03:01:41;7.72;;;1.10;;
48859;SDS011;34679;51.436;-2.518;2024-01-06T03:04:07;6.25;;;1.05;;
48859;SDS011;34679;51.436;-2.518;2024-01-06T03:06:33;5.50;;;1.33;;
48859;SDS011;34679;51.436;-2.518;2024-01-06T03:08:59;4.03;;;1.00;;
48859;SDS011;34679;51.436;-2.518;2024-01-06T03:11:25;9.30;;;1.17;;
48859;SDS011;34679;51.436;-2.518;2024-01-06T03:13:50;3.95;;;1.00;;
48859;SDS011;34679;51.436;-2.518;2024-01-06T03:16:16;7.22;;;1.00;;
48859;SDS011;34679;51.436;-2.518;2024-01-06T03:18:42;13.25;;;1.52;;
48859;SDS011;34679;51.436;-2.518;2024-01-06T03:21:20;5.22;;;1.33;;
48859;SDS011;34679;51.436;-2.518;2024-01-06T03:23:46;3.33;;;0.80;;
48859;SDS011;34679;51.436;-2.518;2024-01-06T03:26:13;4.57;;;0.80;;
48859;SDS011;34679;51.436;-2.518;2024-01-06T03:28:39;7.97;;;0.90;;
48859;SDS011;34679;51.436;-2.518;2024-01-06T03:31:04;6.07;;;0.95;;
48859;SDS011;34679;51.436;-2.518;2024-01-06T03:33:30;4.05;;;1.10;;
48859;SDS011;34679;51.436;-2.518;2024-01-06T03:35:56;10.10;;;1.02;;
48859;SDS011;34679;51.436;-2.518;2024-01-06T03:38:21;5.38;;;1.10;;
48859;SDS011;34679;51.436;-2.518;2024-01-06T03:40:47;6.20;;;1.00;;
48859;SDS011;34679;51.436;-2.518;2024-01-06T03:43:13;5.72;;;0.90;;
48859;SDS011;34679;51.436;-2.518;2024-01-06T03:45:38;8.77;;;1.10;;
48859;SDS011;34679;51.436;-2.518;2024-01-06T03:48:04;10.15;;;0.95;;
48859;SDS011;34679;51.436;-2.518;2024-01-06T03:50:30;8.45;;;1.38;;
48859;SDS011;34679;51.436;-2.518;2024-01-06T03:52:56;5.72;;;1.20;;
48859;SDS011;34679;51.436;-2.518;2024-01-06T03:55:22;10.80;;;1.20;;
48859;SDS011;34679;51.436;-2.518;2024-01-06T03:57:47;5.50;;;1.00;;
48859;SDS011;34679;51.436;-2.518;2024-01-06T04:00:13;2.30;;;0.80;;
48859;SDS011;34679;51.436;-2.518;2024-01-06T04:02:39;7.85;;;1.33;;
48859;SDS011;34679;51.436;-2.518;2024-01-06T04:05:05;9.20;;;1.55;;
48859;SDS011;34679;51.436;-2.518;2024-01-06T04:07:30;6.38;;;1.00;;
48859;SDS011;34679;51.436;-2.518;2024-01-06T04:09:56;8.40;;;1.05;;
48859;SDS011;34679;51.436;-2.518;2024-01-06T04:12:22;10.43;;;1.30;;
48859;SDS011;34679;51.436;-2.518;2024-01-06T04:14:48;9.38;;;2.47;;
48859;SDS011;34679;51.436;-2.518;2024-01-06T04:17:13;7.50;;;1.10;;
48859;SDS011;34679;51.436;-2.518;2024-01-06T04:19:39;7.93;;;2.05;;
48859;SDS011;34679;51.436;-2.518;2024-01-06T04:22:05;9.15;;;1.15;;
48859;SDS011;34679;51.436;-2.518;2024-01-06T04:24:30;5.10;;;1.33;;
48859;SDS011;34679;51.436;-2.518;2024-01-06T04:26:56;6.95;;;1.77;;
48859;SDS011;34679;51.436;-2.518;2024-01-06T04:29:22;6.45;;;1.15;;
48859;SDS011;34679;51.436;-2.518;2024-01-06T04:31:47;11.30;;;1.30;;
48859;SDS011;34679;51.436;-2.518;2024-01-06T04:34:13;4.70;;;1.08;;
48859;SDS011;34679;51.436;-2.518;2024-01-06T04:36:39;7.53;;;1.20;;
48859;SDS011;34679;51.436;-2.518;2024-01-06T04:39:04;5.65;;;1.38;;
48859;SDS011;34679;51.436;-2.518;2024-01-06T04:41:30;5.45;;;1.08;;
48859;SDS011;34679;51.436;-2.518;2024-01-06T04:43:56;8.02;;;1.17;;
48859;SDS011;34679;51.436;-2.518;2024-01-06T04:46:21;6.28;;;1.25;;
48859;SDS011;34679;51.436;-2.518;2024-01-06T04:48:47;6.25;;;1.27;;
48859;SDS011;34679;51.436;-2.518;2024-01-06T04:51:13;8.02;;;1.30;;
48859;SDS011;34679;51.436;-2.518;2024-01-06T04:53:39;11.80;;;1.30;;
48859;SDS011;34679;51.436;-2.518;2024-01-06T04:56:05;6.50;;;1.00;;
48859;SDS011;34679;51.436;-2.518;2024-01-06T04:58:30;8.32;;;0.98;;
48859;SDS011;34679;51.436;-2.518;2024-01-06T05:00:56;9.93;;;1.33;;
48859;SDS011;34679;51.436;-2.518;2024-01-06T05:03:22;12.32;;;1.38;;
48859;SDS011;34679;51.436;-2.518;2024-01-06T05:05:48;8.02;;;1.33;;
48859;SDS011;34679;51.436;-2.518;2024-01-06T05:08:13;9.38;;;1.83;;
48859;SDS011;34679;51.436;-2.518;2024-01-06T05:10:39;9.98;;;2.00;;
48859;SDS011;34679;51.436;-2.518;2024-01-06T05:13:05;12.52;;;2.65;;
48859;SDS011;34679;51.436;-2.518;2024-01-06T05:15:30;4.68;;;2.60;;
48859;SDS011;34679;51.436;-2.518;2024-01-06T05:17:56;6.22;;;2.25;;
48859;SDS011;34679;51.436;-2.518;2024-01-06T05:20:22;9.75;;;2.22;;
48859;SDS011;34679;51.436;-2.518;2024-01-06T05:22:48;5.05;;;1.40;;
48859;SDS011;34679;51.436;-2.518;2024-01-06T05:25:13;11.27;;;1.65;;
48859;SDS011;34679;51.436;-2.518;2024-01-06T05:27:39;8.95;;;1.55;;
48859;SDS011;34679;51.436;-2.518;2024-01-06T05:30:05;3.63;;;1.40;;
48859;SDS011;34679;51.436;-2.518;2024-01-06T05:32:31;8.25;;;1.92;;
48859;SDS011;34679;51.436;-2.518;2024-01-06T05:34:57;6.75;;;1.15;;
48859;SDS011;34679;51.436;-2.518;2024-01-06T05:37:22;4.10;;;1.17;;
48859;SDS011;34679;51.436;-2.518;2024-01-06T05:39:48;10.32;;;1.30;;
48859;SDS011;34679;51.436;-2.518;2024-01-06T05:42:14;6.63;;;1.38;;
48859;SDS011;34679;51.436;-2.518;2024-01-06T05:44:42;9.10;;;1.50;;
48859;SDS011;34679;51.436;-2.518;2024-01-06T05:47:08;9.18;;;1.35;;
48859;SDS011;34679;51.436;-2.518;2024-01-06T05:49:33;5.88;;;1.27;;
48859;SDS011;34679;51.436;-2.518;2024-01-06T05:51:59;9.38;;;1.25;;
48859;SDS011;34679;51.436;-2.518;2024-01-06T05:54:25;3.33;;;0.85;;
48859;SDS011;34679;51.436;-2.518;2024-01-06T05:56:51;10.38;;;1.35;;
48859;SDS011;34679;51.436;-2.518;2024-01-06T05:59:17;4.43;;;1.08;;
48859;SDS011;34679;51.436;-2.518;2024-01-06T06:01:42;8.00;;;1.17;;
48859;SDS011;34679;51.436;-2.518;2024-01-06T06:04:09;4.50;;;1.25;;
48859;SDS011;34679;51.436;-2.518;2024-01-06T06:06:37;6.68;;;1.27;;
48859;SDS011;34679;51.436;-2.518;2024-01-06T06:09:03;11.60;;;1.55;;
48859;SDS011;34679;51.436;-2.518;2024-01-06T06:11:32;5.82;;;0.98;;
48859;SDS011;34679;51.436;-2.518;2024-01-06T06:13:58;8.80;;;1.00;;
48859;SDS011;34679;51.436;-2.518;2024-01-06T06:16:24;5.43;;;0.90;;
48859;SDS011;34679;51.436;-2.518;2024-01-06T06:18:49;7.97;;;1.08;;
48859;SDS011;34679;51.436;-2.518;2024-01-06T06:21:15;6.35;;;0.98;;
48859;SDS011;34679;51.436;-2.518;2024-01-06T06:23:41;7.70;;;1.15;;
48859;SDS011;34679;51.436;-2.518;2024-01-06T06:26:07;8.77;;;1.40;;
48859;SDS011;34679;51.436;-2.518;2024-01-06T06:28:33;3.90;;;0.80;;
48859;SDS011;34679;51.436;-2.518;2024-01-06T06:31:00;6.90;;;1.35;;
48859;SDS011;34679;51.436;-2.518;2024-01-06T06:33:28;5.93;;;0.80;;
48859;SDS011;34679;51.436;-2.518;2024-01-06T06:35:54;10.70;;;1.20;;
48859;SDS011;34679;51.436;-2.518;2024-01-06T06:38:20;4.85;;;1.10;;
48859;SDS011;34679;51.436;-2.518;2024-01-06T06:40:46;10.95;;;1.25;;
48859;SDS011;34679;51.436;-2.518;2024-01-06T06:43:12;7.93;;;1.67;;
48859;SDS011;34679;51.436;-2.518;2024-01-06T06:45:39;11.07;;;1.60;;
48859;SDS011;34679;51.436;-2.518;2024-01-06T06:48:04;13.05;;;1.30;;
48859;SDS011;34679;51.436;-2.518;2024-01-06T06:50:31;8.93;;;1.17;;
48859;SDS011;34679;51.436;-2.518;2024-01-06T06:52:57;11.45;;;1.45;;
48859;SDS011;34679;51.436;-2.518;2024-01-06T06:55:23;5.15;;;1.30;;
48859;SDS011;34679;51.436;-2.518;2024-01-06T06:57:49;6.28;;;1.20;;
48859;SDS011;34679;51.436;-2.518;2024-01-06T07:00:15;10.18;;;1.48;;
48859;SDS011;34679;51.436;-2.518;2024-01-06T07:02:42;10.13;;;2.40;;
48859;SDS011;34679;51.436;-2.518;2024-01-06T07:05:07;6.00;;;1.20;;
48859;SDS011;34679;51.436;-2.518;2024-01-06T07:07:33;6.35;;;1.20;;
48859;SDS011;34679;51.436;-2.518;2024-01-06T07:10:02;6.05;;;1.20;;
48859;SDS011;34679;51.436;-2.518;2024-01-06T07:12:30;5.03;;;1.52;;
48859;SDS011;34679;51.436;-2.518;2024-01-06T07:14:56;7.18;;;1.25;;
48859;SDS011;34679;51.436;-2.518;2024-01-06T07:17:23;10.98;;;1.98;;
48859;SDS011;34679;51.436;-2.518;2024-01-06T07:19:49;5.43;;;1.80;;
48859;SDS011;34679;51.436;-2.518;2024-01-06T07:22:15;6.30;;;1.15;;
48859;SDS011;34679;51.436;-2.518;2024-01-06T07:24:44;9.27;;;1.77;;
48859;SDS011;34679;51.436;-2.518;2024-01-06T07:27:10;5.47;;;1.00;;
48859;SDS011;34679;51.436;-2.518;2024-01-06T07:29:36;10.18;;;1.20;;
48859;SDS011;34679;51.436;-2.518;2024-01-06T07:32:02;7.78;;;1.02;;
48859;SDS011;34679;51.436;-2.518;2024-01-06T07:34:28;7.53;;;1.20;;
48859;SDS011;34679;51.436;-2.518;2024-01-06T07:36:54;7.28;;;1.20;;
48859;SDS011;34679;51.436;-2.518;2024-01-06T07:39:20;8.13;;;1.67;;
48859;SDS011;34679;51.436;-2.518;2024-01-06T07:41:45;11.20;;;1.55;;
48859;SDS011;34679;51.436;-2.518;2024-01-06T07:44:11;12.05;;;1.90;;
48859;SDS011;34679;51.436;-2.518;2024-01-06T07:46:38;13.63;;;1.45;;
48859;SDS011;34679;51.436;-2.518;2024-01-06T07:49:05;5.65;;;1.90;;
48859;SDS011;34679;51.436;-2.518;2024-01-06T07:51:31;9.55;;;1.20;;
48859;SDS011;34679;51.436;-2.518;2024-01-06T07:53:59;8.20;;;1.70;;
48859;SDS011;34679;51.436;-2.518;2024-01-06T07:56:25;9.70;;;2.03;;
48859;SDS011;34679;51.436;-2.518;2024-01-06T07:58:50;9.30;;;1.95;;
48859;SDS011;34679;51.436;-2.518;2024-01-06T08:01:17;5.07;;;2.05;;
48859;SDS011;34679;51.436;-2.518;2024-01-06T08:03:43;7.40;;;1.60;;
48859;SDS011;34679;51.436;-2.518;2024-01-06T08:06:09;12.45;;;2.55;;
48859;SDS011;34679;51.436;-2.518;2024-01-06T08:08:35;8.55;;;2.00;;
48859;SDS011;34679;51.436;-2.518;2024-01-06T08:11:01;10.77;;;1.75;;
48859;SDS011;34679;51.436;-2.518;2024-01-06T08:13:26;4.75;;;1.15;;
48859;SDS011;34679;51.436;-2.518;2024-01-06T08:15:52;11.20;;;1.75;;
48859;SDS011;34679;51.436;-2.518;2024-01-06T08:18:18;4.47;;;1.42;;
48859;SDS011;34679;51.436;-2.518;2024-01-06T08:20:44;6.60;;;2.00;;
48859;SDS011;34679;51.436;-2.518;2024-01-06T08:23:10;8.05;;;1.45;;
48859;SDS011;34679;51.436;-2.518;2024-01-06T08:25:36;7.47;;;2.15;;
48859;SDS011;34679;51.436;-2.518;2024-01-06T08:28:01;6.47;;;2.08;;
48859;SDS011;34679;51.436;-2.518;2024-01-06T08:30:27;7.18;;;2.17;;
48859;SDS011;34679;51.436;-2.518;2024-01-06T08:32:53;7.07;;;2.22;;
48859;SDS011;34679;51.436;-2.518;2024-01-06T08:35:18;10.85;;;2.50;;
48859;SDS011;34679;51.436;-2.518;2024-01-06T08:37:44;10.43;;;2.83;;
48859;SDS011;34679;51.436;-2.518;2024-01-06T08:40:11;13.07;;;2.80;;
48859;SDS011;34679;51.436;-2.518;2024-01-06T08:42:37;11.60;;;3.95;;
48859;SDS011;34679;51.436;-2.518;2024-01-06T08:45:03;9.55;;;2.53;;
48859;SDS011;34679;51.436;-2.518;2024-01-06T08:47:30;9.38;;;2.60;;
48859;SDS011;34679;51.436;-2.518;2024-01-06T08:49:56;15.43;;;2.67;;
48859;SDS011;34679;51.436;-2.518;2024-01-06T08:52:22;6.82;;;2.90;;
48859;SDS011;34679;51.436;-2.518;2024-01-06T08:54:47;10.70;;;3.53;;
48859;SDS011;34679;51.436;-2.518;2024-01-06T08:57:14;9.15;;;3.28;;
48859;SDS011;34679;51.436;-2.518;2024-01-06T08:59:40;7.25;;;2.50;;
48859;SDS011;34679;51.436;-2.518;2024-01-06T09:02:06;11.43;;;2.63;;
48859;SDS011;34679;51.436;-2.518;2024-01-06T09:04:31;11.20;;;3.45;;
48859;SDS011;34679;51.436;-2.518;2024-01-06T09:06:57;20.20;;;3.40;;
48859;SDS011;34679;51.436;-2.518;2024-01-06T09:09:23;8.75;;;3.35;;
48859;SDS011;34679;51.436;-2.518;2024-01-06T09:11:49;8.45;;;5.07;;
48859;SDS011;34679;51.436;-2.518;2024-01-06T09:14:16;10.80;;;3.00;;
48859;SDS011;34679;51.436;-2.518;2024-01-06T09:16:43;8.43;;;3.25;;
48859;SDS011;34679;51.436;-2.518;2024-01-06T09:19:09;15.10;;;3.47;;
48859;SDS011;34679;51.436;-2.518;2024-01-06T09:21:34;49.63;;;19.10;;
48859;SDS011;34679;51.436;-2.518;2024-01-06T09:24:01;66.68;;;25.65;;
48859;SDS011;34679;51.436;-2.518;2024-01-06T09:26:31;61.22;;;26.08;;
48859;SDS011;34679;51.436;-2.518;2024-01-06T09:28:57;62.45;;;26.20;;
48859;SDS011;34679;51.436;-2.518;2024-01-06T09:31:22;72.47;;;29.13;;
48859;SDS011;34679;51.436;-2.518;2024-01-06T09:33:48;59.55;;;26.83;;
48859;SDS011;34679;51.436;-2.518;2024-01-06T09:36:15;40.28;;;21.80;;
48859;SDS011;34679;51.436;-2.518;2024-01-06T09:38:40;35.03;;;17.25;;
48859;SDS011;34679;51.436;-2.518;2024-01-06T09:41:06;35.33;;;15.10;;
48859;SDS011;34679;51.436;-2.518;2024-01-06T09:43:32;37.10;;;17.17;;
48859;SDS011;34679;51.436;-2.518;2024-01-06T09:46:05;35.40;;;14.48;;
48859;SDS011;34679;51.436;-2.518;2024-01-06T09:48:42;22.80;;;10.77;;
48859;SDS011;34679;51.436;-2.518;2024-01-06T09:51:10;11.70;;;4.97;;
48859;SDS011;34679;51.436;-2.518;2024-01-06T09:53:36;20.70;;;5.35;;
48859;SDS011;34679;51.436;-2.518;2024-01-06T09:56:10;6.55;;;3.45;;
48859;SDS011;34679;51.436;-2.518;2024-01-06T09:58:37;9.30;;;3.53;;
48859;SDS011;34679;51.436;-2.518;2024-01-06T10:01:05;5.78;;;3.00;;
48859;SDS011;34679;51.436;-2.518;2024-01-06T10:03:31;13.02;;;3.40;;
48859;SDS011;34679;51.436;-2.518;2024-01-06T10:05:59;9.02;;;2.80;;
48859;SDS011;34679;51.436;-2.518;2024-01-06T10:08:28;11.65;;;3.35;;
48859;SDS011;34679;51.436;-2.518;2024-01-06T10:10:54;10.77;;;5.32;;
48859;SDS011;34679;51.436;-2.518;2024-01-06T10:13:20;15.30;;;5.05;;
48859;SDS011;34679;51.436;-2.518;2024-01-06T10:15:46;11.05;;;4.53;;
48859;SDS011;34679;51.436;-2.518;2024-01-06T10:18:12;8.77;;;3.75;;
48859;SDS011;34679;51.436;-2.518;2024-01-06T10:20:38;9.05;;;4.07;;
48859;SDS011;34679;51.436;-2.518;2024-01-06T10:23:04;14.35;;;3.92;;
48859;SDS011;34679;51.436;-2.518;2024-01-06T10:25:31;14.95;;;3.53;;
48859;SDS011;34679;51.436;-2.518;2024-01-06T10:27:57;12.48;;;4.43;;
48859;SDS011;34679;51.436;-2.518;2024-01-06T10:30:29;8.90;;;3.50;;
48859;SDS011;34679;51.436;-2.518;2024-01-06T10:32:54;9.00;;;3.97;;
48859;SDS011;34679;51.436;-2.518;2024-01-06T10:35:20;15.65;;;4.88;;
48859;SDS011;34679;51.436;-2.518;2024-01-06T10:37:47;8.45;;;3.92;;
48859;SDS011;34679;51.436;-2.518;2024-01-06T10:40:14;8.85;;;3.83;;
48859;SDS011;34679;51.436;-2.518;2024-01-06T10:42:41;8.40;;;4.35;;
48859;SDS011;34679;51.436;-2.518;2024-01-06T10:45:08;11.13;;;4.13;;
48859;SDS011;34679;51.436;-2.518;2024-01-06T10:47:35;111.65;;;6.88;;
48859;SDS011;34679;51.436;-2.518;2024-01-06T10:50:02;38.60;;;4.70;;
48859;SDS011;34679;51.436;-2.518;2024-01-06T10:52:29;10.73;;;4.53;;
48859;SDS011;34679;51.436;-2.518;2024-01-06T10:54:55;13.52;;;4.80;;
48859;SDS011;34679;51.436;-2.518;2024-01-06T10:57:22;10.02;;;5.00;;
48859;SDS011;34679;51.436;-2.518;2024-01-06T10:59:53;13.30;;;5.82;;
48859;SDS011;34679;51.436;-2.518;2024-01-06T11:02:18;15.93;;;5.35;;
48859;SDS011;34679;51.436;-2.518;2024-01-06T11:04:48;13.05;;;5.25;;
48859;SDS011;34679;51.436;-2.518;2024-01-06T11:07:16;12.10;;;5.45;;
48859;SDS011;34679;51.436;-2.518;2024-01-06T11:09:49;18.95;;;6.63;;
48859;SDS011;34679;51.436;-2.518;2024-01-06T11:12:23;15.30;;;7.40;;
48859;SDS011;34679;51.436;-2.518;2024-01-06T11:14:51;14.23;;;6.35;;
48859;SDS011;34679;51.436;-2.518;2024-01-06T11:20:18;18.17;;;7.53;;
48859;SDS011;34679;51.436;-2.518;2024-01-06T11:22:46;20.13;;;8.80;;
48859;SDS011;34679;51.436;-2.518;2024-01-06T11:25:16;13.95;;;6.65;;
48859;SDS011;34679;51.436;-2.518;2024-01-06T11:27:43;16.80;;;5.95;;
48859;SDS011;34679;51.436;-2.518;2024-01-06T11:30:20;24.95;;;5.40;;
48859;SDS011;34679;51.436;-2.518;2024-01-06T11:32:50;13.80;;;5.15;;
48859;SDS011;34679;51.436;-2.518;2024-01-06T11:35:18;13.18;;;4.68;;
48859;SDS011;34679;51.436;-2.518;2024-01-06T11:42:41;9.18;;;3.35;;
48859;SDS011;34679;51.436;-2.518;2024-01-06T11:45:07;8.05;;;3.20;;
48859;SDS011;34679;51.436;-2.518;2024-01-06T11:47:34;4.25;;;3.13;;
48859;SDS011;34679;51.436;-2.518;2024-01-06T11:50:00;15.55;;;5.53;;
48859;SDS011;34679;51.436;-2.518;2024-01-06T11:52:31;12.88;;;4.53;;
48859;SDS011;34679;51.436;-2.518;2024-01-06T11:54:58;15.85;;;5.90;;
48859;SDS011;34679;51.436;-2.518;2024-01-06T11:57:25;10.98;;;5.75;;
48859;SDS011;34679;51.436;-2.518;2024-01-06T11:59:52;8.40;;;4.05;;
48859;SDS011;34679;51.436;-2.518;2024-01-06T12:02:18;5.78;;;3.13;;
48859;SDS011;34679;51.436;-2.518;2024-01-06T12:04:48;9.45;;;2.40;;
48859;SDS011;34679;51.436;-2.518;2024-01-06T12:07:18;9.93;;;2.35;;
48859;SDS011;34679;51.436;-2.518;2024-01-06T12:09:48;4.85;;;1.48;;
48859;SDS011;34679;51.436;-2.518;2024-01-06T12:12:15;4.75;;;1.17;;
48859;SDS011;34679;51.436;-2.518;2024-01-06T12:14:42;13.13;;;1.75;;
48859;SDS011;34679;51.436;-2.518;2024-01-06T12:17:08;4.78;;;0.95;;
48859;SDS011;34679;51.436;-2.518;2024-01-06T12:19:35;8.20;;;1.85;;
48859;SDS011;34679;51.436;-2.518;2024-01-06T12:22:01;6.03;;;1.60;;
48859;SDS011;34679;51.436;-2.518;2024-01-06T12:24:28;1.70;;;0.90;;
48859;SDS011;34679;51.436;-2.518;2024-01-06T12:26:57;4.47;;;1.45;;
48859;SDS011;34679;51.436;-2.518;2024-01-06T12:29:27;3.80;;;0.95;;
48859;SDS011;34679;51.436;-2.518;2024-01-06T12:31:54;9.38;;;1.15;;
48859;SDS011;34679;51.436;-2.518;2024-01-06T12:34:20;3.40;;;1.10;;
48859;SDS011;34679;51.436;-2.518;2024-01-06T12:36:47;3.70;;;1.05;;
48859;SDS011;34679;51.436;-2.518;2024-01-06T12:39:13;7.28;;;1.20;;
48859;SDS011;34679;51.436;-2.518;2024-01-06T12:41:42;3.00;;;1.90;;
48859;SDS011;34679;51.436;-2.518;2024-01-06T12:44:08;3.58;;;0.98;;
48859;SDS011;34679;51.436;-2.518;2024-01-06T12:46:34;4.10;;;1.10;;
48859;SDS011;34679;51.436;-2.518;2024-01-06T12:49:01;3.40;;;1.38;;
48859;SDS011;34679;51.436;-2.518;2024-01-06T12:51:27;4.22;;;1.05;;
48859;SDS011;34679;51.436;-2.518;2024-01-06T12:53:53;13.25;;;1.83;;
48859;SDS011;34679;51.436;-2.518;2024-01-06T12:56:19;5.57;;;1.00;;
48859;SDS011;34679;51.436;-2.518;2024-01-06T12:58:44;4.75;;;1.02;;
48859;SDS011;34679;51.436;-2.518;2024-01-06T13:01:10;5.13;;;0.90;;
48859;SDS011;34679;51.436;-2.518;2024-01-06T13:03:36;3.97;;;0.90;;
48859;SDS011;34679;51.436;-2.518;2024-01-06T13:06:02;6.72;;;2.03;;
48859;SDS011;34679;51.436;-2.518;2024-01-06T13:08:28;5.03;;;1.38;;
48859;SDS011;34679;51.436;-2.518;2024-01-06T13:10:54;1.70;;;1.15;;
48859;SDS011;34679;51.436;-2.518;2024-01-06T13:13:21;4.95;;;1.15;;
48859;SDS011;34679;51.436;-2.518;2024-01-06T13:15:46;3.47;;;1.10;;
48859;SDS011;34679;51.436;-2.518;2024-01-06T13:18:12;5.30;;;0.90;;
48859;SDS011;34679;51.436;-2.518;2024-01-06T13:20:41;2.42;;;0.80;;
48859;SDS011;34679;51.436;-2.518;2024-01-06T13:23:07;4.95;;;0.75;;
48859;SDS011;34679;51.436;-2.518;2024-01-06T13:25:34;2.83;;;1.30;;
48859;SDS011;34679;51.436;-2.518;2024-01-06T13:28:00;5.95;;;1.33;;
48859;SDS011;34679;51.436;-2.518;2024-01-06T13:30:26;3.65;;;0.75;;
48859;SDS011;34679;51.436;-2.518;2024-01-06T13:32:52;3.05;;;0.57;;
48859;SDS011;34679;51.436;-2.518;2024-01-06T13:35:22;8.80;;;1.20;;
48859;SDS011;34679;51.436;-2.518;2024-01-06T13:37:50;2.63;;;0.98;;
48859;SDS011;34679;51.436;-2.518;2024-01-06T13:40:20;2.65;;;1.70;;
48859;SDS011;34679;51.436;-2.518;2024-01-06T13:42:50;3.08;;;0.90;;
48859;SDS011;34679;51.436;-2.518;2024-01-06T13:45:16;2.58;;;1.73;;
48859;SDS011;34679;51.436;-2.518;2024-01-06T13:47:42;3.10;;;1.10;;
48859;SDS011;34679;51.436;-2.518;2024-01-06T13:50:10;5.97;;;1.05;;
48859;SDS011;34679;51.436;-2.518;2024-01-06T13:52:37;1.95;;;0.90;;
48859;SDS011;34679;51.436;-2.518;2024-01-06T13:55:03;5.22;;;1.30;;
48859;SDS011;34679;51.436;-2.518;2024-01-06T13:57:30;2.03;;;0.90;;
48859;SDS011;34679;51.436;-2.518;2024-01-06T13:59:55;4.80;;;1.20;;
48859;SDS011;34679;51.436;-2.518;2024-01-06T14:02:22;3.45;;;1.52;;
48859;SDS011;34679;51.436;-2.518;2024-01-06T14:04:48;3.22;;;1.55;;
48859;SDS011;34679;51.436;-2.518;2024-01-06T14:07:14;2.47;;;0.80;;
48859;SDS011;34679;51.436;-2.518;2024-01-06T14:09:43;3.63;;;1.20;;
48859;SDS011;34679;51.436;-2.518;2024-01-06T14:12:10;8.75;;;2.30;;
48859;SDS011;34679;51.436;-2.518;2024-01-06T14:14:35;4.95;;;1.63;;
48859;SDS011;34679;51.436;-2.518;2024-01-06T14:17:01;2.05;;;1.20;;
48859;SDS011;34679;51.436;-2.518;2024-01-06T14:19:27;2.47;;;1.00;;
48859;SDS011;34679;51.436;-2.518;2024-01-06T14:21:53;2.60;;;0.90;;
48859;SDS011;34679;51.436;-2.518;2024-01-06T14:24:19;1.40;;;0.65;;
48859;SDS011;34679;51.436;-2.518;2024-01-06T14:26:55;5.43;;;0.85;;
48859;SDS011;34679;51.436;-2.518;2024-01-06T14:29:21;2.93;;;0.87;;
48859;SDS011;34679;51.436;-2.518;2024-01-06T14:31:46;4.22;;;0.98;;
48859;SDS011;34679;51.436;-2.518;2024-01-06T14:34:13;3.78;;;1.10;;